Главная страница
METAR-TAF:

METAR-TAF

Аэропорты :

William H. Morse State Airport

Bennington, Вермонт, США

широта: 42-53-24N, долгота: 073-14-47W, высота над уровнем моря: 252 м

Текущие метеонаблюдения

Эта сводка был подготовлена 1 час и 11 минут назад, в 08:54 UTC
Штиль
Температура 2°C
Влажность 69%
Давление 1020 hPa
Видимость: 16.1 км
Сплошная облачность на высоте 6000 фута

METAR: KDDH 220854Z AUTO 00000KT 10SM OVC060 02/M03 A3011 RMK AO2 SLP202 T00171028 53003

Время: 06:05 (10:05 UTC)


TAF: отсутствует

Метеонаблюдения и прогнозы для более 4000 аэропортов (сводки METAR и TAF).

Имеющиеся станции представлены на карте желтыми и красными точками.

Чтобы увидеть название станции, наведите на нее мышь.

Затем щелкните, чтобы увидеть метеонаблюдения и метеопрогнозы.

Управление картой: чтобы увеличить масштаб, щелкните зеленые кнопки с черным крестиком; чтобы уменьшить масштаб, щелкните зеленую кнопку с тире; для просмотра соседних карт щелкайте зеленые стрелки.


METAR-TAF: